sensor_id;sensor_type;location;lat;lon;timestamp;temperature;humidity
10010;DHT22;5044;48.652;9.250;2022-12-18T00:01:15;-9.70;99.90
10010;DHT22;5044;48.652;9.250;2022-12-18T00:03:45;-9.70;99.90
10010;DHT22;5044;48.652;9.250;2022-12-18T00:06:12;-9.60;99.90
10010;DHT22;5044;48.652;9.250;2022-12-18T00:08:39;-9.60;99.90
10010;DHT22;5044;48.652;9.250;2022-12-18T00:11:07;-9.70;99.90
10010;DHT22;5044;48.652;9.250;2022-12-18T00:13:34;-9.70;99.90
10010;DHT22;5044;48.652;9.250;2022-12-18T00:16:03;-9.60;99.90
10010;DHT22;5044;48.652;9.250;2022-12-18T00:18:31;-8.50;99.90
10010;DHT22;5044;48.652;9.250;2022-12-18T00:21:00;-9.60;99.90
10010;DHT22;5044;48.652;9.250;2022-12-18T00:23:28;-9.60;99.90
10010;DHT22;5044;48.652;9.250;2022-12-18T00:25:59;-9.40;99.90
10010;DHT22;5044;48.652;9.250;2022-12-18T00:28:26;-9.70;99.90
10010;DHT22;5044;48.652;9.250;2022-12-18T00:31:00;-9.70;99.90
10010;DHT22;5044;48.652;9.250;2022-12-18T00:33:27;-9.80;99.90
10010;DHT22;5044;48.652;9.250;2022-12-18T00:35:54;-9.80;99.90
10010;DHT22;5044;48.652;9.250;2022-12-18T00:38:22;-9.80;99.90
10010;DHT22;5044;48.652;9.250;2022-12-18T00:40:49;-9.80;99.90
10010;DHT22;5044;48.652;9.250;2022-12-18T00:43:17;-9.80;99.90
10010;DHT22;5044;48.652;9.250;2022-12-18T00:45:43;-9.90;99.90
10010;DHT22;5044;48.652;9.250;2022-12-18T00:48:10;-9.90;99.90
10010;DHT22;5044;48.652;9.250;2022-12-18T00:50:37;-10.00;99.90
10010;DHT22;5044;48.652;9.250;2022-12-18T00:53:03;-10.00;99.90
10010;DHT22;5044;48.652;9.250;2022-12-18T00:55:32;-9.90;99.90
10010;DHT22;5044;48.652;9.250;2022-12-18T00:58:00;-9.90;99.90
10010;DHT22;5044;48.652;9.250;2022-12-18T01:00:26;-9.90;99.90
10010;DHT22;5044;48.652;9.250;2022-12-18T01:02:54;-10.00;99.90
10010;DHT22;5044;48.652;9.250;2022-12-18T01:05:20;-10.00;99.90
10010;DHT22;5044;48.652;9.250;2022-12-18T01:07:48;-10.00;99.90
10010;DHT22;5044;48.652;9.250;2022-12-18T01:10:15;-10.10;99.90
10010;DHT22;5044;48.652;9.250;2022-12-18T01:12:44;-10.20;99.90
10010;DHT22;5044;48.652;9.250;2022-12-18T01:15:13;-10.20;99.90
10010;DHT22;5044;48.652;9.250;2022-12-18T01:17:40;-10.30;99.90
10010;DHT22;5044;48.652;9.250;2022-12-18T01:20:09;-10.30;99.90
10010;DHT22;5044;48.652;9.250;2022-12-18T01:22:36;-10.30;99.90
10010;DHT22;5044;48.652;9.250;2022-12-18T01:25:04;-10.30;99.90
10010;DHT22;5044;48.652;9.250;2022-12-18T01:27:32;-10.20;99.90
10010;DHT22;5044;48.652;9.250;2022-12-18T01:30:02;-10.30;99.90
10010;DHT22;5044;48.652;9.250;2022-12-18T01:32:29;-10.30;99.90
10010;DHT22;5044;48.652;9.250;2022-12-18T01:34:57;-10.30;99.90
10010;DHT22;5044;48.652;9.250;2022-12-18T01:37:24;-10.30;99.90
10010;DHT22;5044;48.652;9.250;2022-12-18T01:39:52;-10.30;99.90
10010;DHT22;5044;48.652;9.250;2022-12-18T01:42:20;-10.30;99.90
10010;DHT22;5044;48.652;9.250;2022-12-18T01:44:55;-10.40;99.90
10010;DHT22;5044;48.652;9.250;2022-12-18T01:47:26;-10.40;99.90
10010;DHT22;5044;48.652;9.250;2022-12-18T01:49:54;-10.40;99.90
10010;DHT22;5044;48.652;9.250;2022-12-18T01:52:24;-10.30;99.90
10010;DHT22;5044;48.652;9.250;2022-12-18T01:54:53;-10.50;99.90
10010;DHT22;5044;48.652;9.250;2022-12-18T01:57:22;-10.30;99.90
10010;DHT22;5044;48.652;9.250;2022-12-18T01:59:52;-10.50;99.90
10010;DHT22;5044;48.652;9.250;2022-12-18T02:02:21;-10.40;99.90
10010;DHT22;5044;48.652;9.250;2022-12-18T02:04:49;-9.90;99.90
10010;DHT22;5044;48.652;9.250;2022-12-18T02:07:21;-10.50;99.90
10010;DHT22;5044;48.652;9.250;2022-12-18T02:09:57;-10.40;99.90
10010;DHT22;5044;48.652;9.250;2022-12-18T02:12:29;-10.40;99.90
10010;DHT22;5044;48.652;9.250;2022-12-18T02:15:02;-10.50;99.90
10010;DHT22;5044;48.652;9.250;2022-12-18T02:17:37;-10.50;99.90
10010;DHT22;5044;48.652;9.250;2022-12-18T02:20:13;-10.50;99.90
10010;DHT22;5044;48.652;9.250;2022-12-18T02:22:53;-10.60;99.90
10010;DHT22;5044;48.652;9.250;2022-12-18T02:28:15;-10.00;99.90
10010;DHT22;5044;48.652;9.250;2022-12-18T02:30:44;-10.60;99.90
10010;DHT22;5044;48.652;9.250;2022-12-18T02:33:14;-10.60;99.90
10010;DHT22;5044;48.652;9.250;2022-12-18T02:35:42;-10.60;99.90
10010;DHT22;5044;48.652;9.250;2022-12-18T02:38:11;-10.60;99.90
10010;DHT22;5044;48.652;9.250;2022-12-18T02:40:39;-10.60;99.90
10010;DHT22;5044;48.652;9.250;2022-12-18T02:43:08;-10.70;99.90
10010;DHT22;5044;48.652;9.250;2022-12-18T02:45:45;-10.60;99.90
10010;DHT22;5044;48.652;9.250;2022-12-18T02:48:12;-10.70;99.90
10010;DHT22;5044;48.652;9.250;2022-12-18T02:50:46;-10.70;99.90
10010;DHT22;5044;48.652;9.250;2022-12-18T02:53:18;-10.70;99.90
10010;DHT22;5044;48.652;9.250;2022-12-18T02:55:57;-10.70;99.90
10010;DHT22;5044;48.652;9.250;2022-12-18T02:58:30;-10.50;99.90
10010;DHT22;5044;48.652;9.250;2022-12-18T03:01:07;-10.70;99.90
10010;DHT22;5044;48.652;9.250;2022-12-18T03:03:40;-10.70;99.90
10010;DHT22;5044;48.652;9.250;2022-12-18T03:06:11;-10.70;99.90
10010;DHT22;5044;48.652;9.250;2022-12-18T03:08:44;-10.80;99.90
10010;DHT22;5044;48.652;9.250;2022-12-18T03:11:14;-10.80;99.90
10010;DHT22;5044;48.652;9.250;2022-12-18T03:13:44;-11.00;99.90
10010;DHT22;5044;48.652;9.250;2022-12-18T03:16:19;-10.90;99.90
10010;DHT22;5044;48.652;9.250;2022-12-18T03:18:52;-10.90;99.90
10010;DHT22;5044;48.652;9.250;2022-12-18T03:21:27;-11.10;99.90
10010;DHT22;5044;48.652;9.250;2022-12-18T03:23:56;-11.00;99.90
10010;DHT22;5044;48.652;9.250;2022-12-18T03:26:25;-10.20;99.90
10010;DHT22;5044;48.652;9.250;2022-12-18T03:28:57;-11.00;99.90
10010;DHT22;5044;48.652;9.250;2022-12-18T03:31:29;-11.00;99.90
10010;DHT22;5044;48.652;9.250;2022-12-18T03:33:59;-11.00;99.90
10010;DHT22;5044;48.652;9.250;2022-12-18T03:36:28;-11.10;99.90
10010;DHT22;5044;48.652;9.250;2022-12-18T03:38:58;-11.10;99.90
10010;DHT22;5044;48.652;9.250;2022-12-18T03:41:29;-11.10;99.90
10010;DHT22;5044;48.652;9.250;2022-12-18T03:44:03;-11.10;99.90
10010;DHT22;5044;48.652;9.250;2022-12-18T03:46:43;-10.60;99.90
10010;DHT22;5044;48.652;9.250;2022-12-18T03:49:19;-11.10;99.90
10010;DHT22;5044;48.652;9.250;2022-12-18T03:51:54;-11.00;99.90
10010;DHT22;5044;48.652;9.250;2022-12-18T03:54:23;-11.10;99.90
10010;DHT22;5044;48.652;9.250;2022-12-18T03:56:56;-11.10;99.90
10010;DHT22;5044;48.652;9.250;2022-12-18T03:59:25;-11.20;99.90
10010;DHT22;5044;48.652;9.250;2022-12-18T04:01:57;-11.10;99.90
10010;DHT22;5044;48.652;9.250;2022-12-18T04:04:26;-11.00;99.90
10010;DHT22;5044;48.652;9.250;2022-12-18T04:06:55;-11.20;99.90
10010;DHT22;5044;48.652;9.250;2022-12-18T04:09:23;-11.20;99.90
10010;DHT22;5044;48.652;9.250;2022-12-18T04:11:51;-11.30;99.90
10010;DHT22;5044;48.652;9.250;2022-12-18T04:14:19;-11.30;99.90
10010;DHT22;5044;48.652;9.250;2022-12-18T04:16:46;-11.20;99.90
10010;DHT22;5044;48.652;9.250;2022-12-18T04:19:14;-11.30;99.90
10010;DHT22;5044;48.652;9.250;2022-12-18T04:21:41;-10.40;99.90
10010;DHT22;5044;48.652;9.250;2022-12-18T04:24:08;-11.20;99.90
10010;DHT22;5044;48.652;9.250;2022-12-18T04:26:36;-11.10;99.90
10010;DHT22;5044;48.652;9.250;2022-12-18T04:29:03;-11.30;99.90
10010;DHT22;5044;48.652;9.250;2022-12-18T04:31:30;-11.30;99.90
10010;DHT22;5044;48.652;9.250;2022-12-18T04:33:57;-11.40;99.90
10010;DHT22;5044;48.652;9.250;2022-12-18T04:36:26;-11.30;99.90
10010;DHT22;5044;48.652;9.250;2022-12-18T04:38:53;-11.40;99.90
10010;DHT22;5044;48.652;9.250;2022-12-18T04:41:20;-10.30;99.90
10010;DHT22;5044;48.652;9.250;2022-12-18T04:43:47;-11.50;99.90
10010;DHT22;5044;48.652;9.250;2022-12-18T04:46:14;-11.60;99.90
10010;DHT22;5044;48.652;9.250;2022-12-18T04:48:41;-11.60;99.90
10010;DHT22;5044;48.652;9.250;2022-12-18T04:51:08;-11.60;99.90
10010;DHT22;5044;48.652;9.250;2022-12-18T04:53:37;-11.30;99.90
10010;DHT22;5044;48.652;9.250;2022-12-18T04:56:06;-11.60;99.90
10010;DHT22;5044;48.652;9.250;2022-12-18T04:58:33;-11.60;99.90
10010;DHT22;5044;48.652;9.250;2022-12-18T05:01:00;-11.40;99.90
10010;DHT22;5044;48.652;9.250;2022-12-18T05:03:27;-11.60;99.90
10010;DHT22;5044;48.652;9.250;2022-12-18T05:05:54;-11.60;99.90
10010;DHT22;5044;48.652;9.250;2022-12-18T05:08:21;-11.20;99.90
10010;DHT22;5044;48.652;9.250;2022-12-18T05:10:50;-11.60;99.90
10010;DHT22;5044;48.652;9.250;2022-12-18T05:13:26;-11.60;99.90
10010;DHT22;5044;48.652;9.250;2022-12-18T05:15:54;-11.70;99.90
10010;DHT22;5044;48.652;9.250;2022-12-18T05:18:21;-11.70;99.90
10010;DHT22;5044;48.652;9.250;2022-12-18T05:20:49;-11.10;99.90
10010;DHT22;5044;48.652;9.250;2022-12-18T05:23:17;-11.70;99.90
10010;DHT22;5044;48.652;9.250;2022-12-18T05:25:47;-11.80;99.90
10010;DHT22;5044;48.652;9.250;2022-12-18T05:28:16;-11.70;99.90
10010;DHT22;5044;48.652;9.250;2022-12-18T05:30:44;-11.80;99.90
10010;DHT22;5044;48.652;9.250;2022-12-18T05:33:13;-11.40;99.90
10010;DHT22;5044;48.652;9.250;2022-12-18T05:35:40;-11.90;99.90
10010;DHT22;5044;48.652;9.250;2022-12-18T05:38:07;-11.70;99.90
10010;DHT22;5044;48.652;9.250;2022-12-18T05:40:34;-11.20;99.90
10010;DHT22;5044;48.652;9.250;2022-12-18T05:43:02;-10.90;99.90
10010;DHT22;5044;48.652;9.250;2022-12-18T05:45:31;-10.70;99.90
10010;DHT22;5044;48.652;9.250;2022-12-18T05:47:58;-12.00;99.90
10010;DHT22;5044;48.652;9.250;2022-12-18T05:50:25;-11.20;99.90
10010;DHT22;5044;48.652;9.250;2022-12-18T05:52:52;-12.10;99.90
10010;DHT22;5044;48.652;9.250;2022-12-18T05:55:19;-12.10;99.90
10010;DHT22;5044;48.652;9.250;2022-12-18T05:57:46;-12.20;99.90
10010;DHT22;5044;48.652;9.250;2022-12-18T06:00:14;-12.20;99.90
10010;DHT22;5044;48.652;9.250;2022-12-18T06:02:46;-12.20;99.90
10010;DHT22;5044;48.652;9.250;2022-12-18T06:05:14;-11.00;99.90
10010;DHT22;5044;48.652;9.250;2022-12-18T06:07:41;-12.20;99.90
10010;DHT22;5044;48.652;9.250;2022-12-18T06:10:08;-12.20;99.90
10010;DHT22;5044;48.652;9.250;2022-12-18T06:12:37;-12.20;99.90
10010;DHT22;5044;48.652;9.250;2022-12-18T06:15:05;-12.10;99.90
10010;DHT22;5044;48.652;9.250;2022-12-18T06:17:33;-12.20;99.90
10010;DHT22;5044;48.652;9.250;2022-12-18T06:20:04;-11.50;99.90
10010;DHT22;5044;48.652;9.250;2022-12-18T06:22:33;-12.10;99.90
10010;DHT22;5044;48.652;9.250;2022-12-18T06:25:00;-12.20;99.90
10010;DHT22;5044;48.652;9.250;2022-12-18T06:27:27;-12.10;99.90
10010;DHT22;5044;48.652;9.250;2022-12-18T06:29:54;-12.30;99.90
10010;DHT22;5044;48.652;9.250;2022-12-18T06:32:21;-11.80;99.90
10010;DHT22;5044;48.652;9.250;2022-12-18T06:34:48;-12.20;99.90
10010;DHT22;5044;48.652;9.250;2022-12-18T06:37:17;-12.40;99.90
10010;DHT22;5044;48.652;9.250;2022-12-18T06:39:44;-12.40;99.90
10010;DHT22;5044;48.652;9.250;2022-12-18T06:42:12;-12.20;99.90
10010;DHT22;5044;48.652;9.250;2022-12-18T06:44:39;-12.40;99.90
10010;DHT22;5044;48.652;9.250;2022-12-18T06:47:06;-12.50;99.90
10010;DHT22;5044;48.652;9.250;2022-12-18T06:49:33;-12.30;99.90
10010;DHT22;5044;48.652;9.250;2022-12-18T06:51:59;-12.70;99.90
10010;DHT22;5044;48.652;9.250;2022-12-18T06:54:28;-12.80;99.90
10010;DHT22;5044;48.652;9.250;2022-12-18T06:56:55;-12.70;99.90
10010;DHT22;5044;48.652;9.250;2022-12-18T06:59:22;-12.20;99.90
10010;DHT22;5044;48.652;9.250;2022-12-18T07:01:49;-12.70;99.90
10010;DHT22;5044;48.652;9.250;2022-12-18T07:04:17;-12.70;99.90
10010;DHT22;5044;48.652;9.250;2022-12-18T07:06:45;-12.50;99.90
10010;DHT22;5044;48.652;9.250;2022-12-18T07:09:12;-12.60;99.90
10010;DHT22;5044;48.652;9.250;2022-12-18T07:11:40;-12.60;99.90
10010;DHT22;5044;48.652;9.250;2022-12-18T07:14:07;-12.40;99.90
10010;DHT22;5044;48.652;9.250;2022-12-18T07:16:34;-12.60;99.90
10010;DHT22;5044;48.652;9.250;2022-12-18T07:19:02;-12.50;99.90
10010;DHT22;5044;48.652;9.250;2022-12-18T07:21:29;-12.50;99.90
10010;DHT22;5044;48.652;9.250;2022-12-18T07:23:56;-12.50;99.90
10010;DHT22;5044;48.652;9.250;2022-12-18T07:26:24;-12.40;99.90
10010;DHT22;5044;48.652;9.250;2022-12-18T07:28:55;-12.30;99.90
10010;DHT22;5044;48.652;9.250;2022-12-18T07:31:23;-11.50;99.90
10010;DHT22;5044;48.652;9.250;2022-12-18T07:33:51;-12.30;99.90
10010;DHT22;5044;48.652;9.250;2022-12-18T07:36:19;-12.30;99.90
10010;DHT22;5044;48.652;9.250;2022-12-18T07:38:47;-12.40;99.90
10010;DHT22;5044;48.652;9.250;2022-12-18T07:41:17;-12.10;99.90
10010;DHT22;5044;48.652;9.250;2022-12-18T07:43:44;-12.40;99.90
10010;DHT22;5044;48.652;9.250;2022-12-18T07:46:14;-12.30;99.90
10010;DHT22;5044;48.652;9.250;2022-12-18T07:48:42;-11.80;99.90
10010;DHT22;5044;48.652;9.250;2022-12-18T07:51:09;-11.80;99.90
10010;DHT22;5044;48.652;9.250;2022-12-18T07:53:37;-12.30;99.90
10010;DHT22;5044;48.652;9.250;2022-12-18T07:56:06;-12.30;99.90
10010;DHT22;5044;48.652;9.250;2022-12-18T07:58:35;-12.20;99.90
10010;DHT22;5044;48.652;9.250;2022-12-18T08:01:03;-12.00;99.90
10010;DHT22;5044;48.652;9.250;2022-12-18T08:03:33;-12.10;99.90
10010;DHT22;5044;48.652;9.250;2022-12-18T08:06:00;-11.80;99.90
10010;DHT22;5044;48.652;9.250;2022-12-18T08:08:28;-12.00;99.90
10010;DHT22;5044;48.652;9.250;2022-12-18T08:10:55;-11.30;99.90
10010;DHT22;5044;48.652;9.250;2022-12-18T08:13:22;-11.80;99.90
10010;DHT22;5044;48.652;9.250;2022-12-18T08:15:56;-11.80;99.90
10010;DHT22;5044;48.652;9.250;2022-12-18T08:18:23;-11.60;99.90
10010;DHT22;5044;48.652;9.250;2022-12-18T08:20:53;-10.20;99.90
10010;DHT22;5044;48.652;9.250;2022-12-18T08:23:19;-11.20;99.90
10010;DHT22;5044;48.652;9.250;2022-12-18T08:25:48;-10.40;99.90
10010;DHT22;5044;48.652;9.250;2022-12-18T08:28:15;-10.90;99.90
10010;DHT22;5044;48.652;9.250;2022-12-18T08:30:42;-10.80;99.90
10010;DHT22;5044;48.652;9.250;2022-12-18T08:33:09;-10.60;99.90
10010;DHT22;5044;48.652;9.250;2022-12-18T08:35:36;-10.50;99.90
10010;DHT22;5044;48.652;9.250;2022-12-18T08:38:05;-10.50;99.90
10010;DHT22;5044;48.652;9.250;2022-12-18T08:40:32;-10.40;99.90
10010;DHT22;5044;48.652;9.250;2022-12-18T08:42:59;-10.30;99.90
10010;DHT22;5044;48.652;9.250;2022-12-18T08:45:45;-9.40;99.90
10010;DHT22;5044;48.652;9.250;2022-12-18T08:48:12;-10.10;99.90
10010;DHT22;5044;48.652;9.250;2022-12-18T08:50:39;-10.00;99.90
10010;DHT22;5044;48.652;9.250;2022-12-18T08:53:08;-9.90;99.90
10010;DHT22;5044;48.652;9.250;2022-12-18T08:55:35;-9.70;99.90
10010;DHT22;5044;48.652;9.250;2022-12-18T08:58:02;-9.60;99.90
10010;DHT22;5044;48.652;9.250;2022-12-18T09:00:29;-9.60;99.90
10010;DHT22;5044;48.652;9.250;2022-12-18T09:02:56;-9.50;99.90
10010;DHT22;5044;48.652;9.250;2022-12-18T09:05:23;-9.40;99.90
10010;DHT22;5044;48.652;9.250;2022-12-18T09:07:50;-9.30;99.90
10010;DHT22;5044;48.652;9.250;2022-12-18T09:10:19;-9.20;99.90
10010;DHT22;5044;48.652;9.250;2022-12-18T09:12:46;-9.10;99.90
10010;DHT22;5044;48.652;9.250;2022-12-18T09:15:13;-9.00;99.90
10010;DHT22;5044;48.652;9.250;2022-12-18T09:17:40;-9.00;99.90
10010;DHT22;5044;48.652;9.250;2022-12-18T09:20:08;-8.90;99.90
10010;DHT22;5044;48.652;9.250;2022-12-18T09:22:35;-8.80;99.90
10010;DHT22;5044;48.652;9.250;2022-12-18T09:25:02;-8.80;99.90
10010;DHT22;5044;48.652;9.250;2022-12-18T09:27:35;-8.60;99.90
10010;DHT22;5044;48.652;9.250;2022-12-18T09:30:03;-8.40;99.90
10010;DHT22;5044;48.652;9.250;2022-12-18T09:32:30;-8.20;99.90
10010;DHT22;5044;48.652;9.250;2022-12-18T09:34:57;-8.10;99.90
10010;DHT22;5044;48.652;9.250;2022-12-18T09:37:25;-8.00;99.90
10010;DHT22;5044;48.652;9.250;2022-12-18T09:39:51;-7.80;99.90
10010;DHT22;5044;48.652;9.250;2022-12-18T09:42:21;-7.70;99.90
10010;DHT22;5044;48.652;9.250;2022-12-18T09:44:52;-7.50;99.90
10010;DHT22;5044;48.652;9.250;2022-12-18T09:47:23;-7.40;99.90
10010;DHT22;5044;48.652;9.250;2022-12-18T09:50:05;-7.20;99.90
10010;DHT22;5044;48.652;9.250;2022-12-18T09:52:37;-7.10;99.90
10010;DHT22;5044;48.652;9.250;2022-12-18T09:55:08;-7.00;99.90
10010;DHT22;5044;48.652;9.250;2022-12-18T09:57:41;-7.00;99.90
10010;DHT22;5044;48.652;9.250;2022-12-18T10:00:16;-6.90;99.90
10010;DHT22;5044;48.652;9.250;2022-12-18T10:02:44;-6.90;99.90
10010;DHT22;5044;48.652;9.250;2022-12-18T10:05:14;-6.80;99.90
10010;DHT22;5044;48.652;9.250;2022-12-18T10:07:53;-6.70;99.90
10010;DHT22;5044;48.652;9.250;2022-12-18T10:10:33;-6.50;99.90
10010;DHT22;5044;48.652;9.250;2022-12-18T10:13:09;-6.30;99.90
10010;DHT22;5044;48.652;9.250;2022-12-18T10:15:49;-6.30;99.90
10010;DHT22;5044;48.652;9.250;2022-12-18T10:18:28;-6.10;99.90
10010;DHT22;5044;48.652;9.250;2022-12-18T10:21:05;-6.00;99.90
10010;DHT22;5044;48.652;9.250;2022-12-18T10:23:41;-5.70;99.90
10010;DHT22;5044;48.652;9.250;2022-12-18T10:26:11;-5.60;99.90
10010;DHT22;5044;48.652;9.250;2022-12-18T10:28:40;-5.40;99.90
10010;DHT22;5044;48.652;9.250;2022-12-18T10:31:14;-5.30;99.90
10010;DHT22;5044;48.652;9.250;2022-12-18T10:33:43;-5.30;99.90
10010;DHT22;5044;48.652;9.250;2022-12-18T10:36:11;-5.10;99.90
10010;DHT22;5044;48.652;9.250;2022-12-18T10:38:38;-5.10;99.90
10010;DHT22;5044;48.652;9.250;2022-12-18T10:41:08;-5.10;99.90
10010;DHT22;5044;48.652;9.250;2022-12-18T10:44:11;-4.90;99.90
10010;DHT22;5044;48.652;9.250;2022-12-18T10:46:40;-4.90;99.90
10010;DHT22;5044;48.652;9.250;2022-12-18T10:49:19;-4.70;99.90
10010;DHT22;5044;48.652;9.250;2022-12-18T10:51:48;-4.70;99.90
10010;DHT22;5044;48.652;9.250;2022-12-18T10:54:19;-4.50;99.90
10010;DHT22;5044;48.652;9.250;2022-12-18T10:56:48;-4.50;99.90
10010;DHT22;5044;48.652;9.250;2022-12-18T10:59:16;-4.40;99.90
10010;DHT22;5044;48.652;9.250;2022-12-18T11:01:50;-4.40;99.90
10010;DHT22;5044;48.652;9.250;2022-12-18T11:04:21;-4.40;99.90
10010;DHT22;5044;48.652;9.250;2022-12-18T11:06:54;-4.30;99.90
10010;DHT22;5044;48.652;9.250;2022-12-18T11:09:23;-4.20;99.90
10010;DHT22;5044;48.652;9.250;2022-12-18T11:11:52;-4.00;99.90
10010;DHT22;5044;48.652;9.250;2022-12-18T11:14:22;-4.00;99.90
10010;DHT22;5044;48.652;9.250;2022-12-18T11:16:52;-3.90;99.90
10010;DHT22;5044;48.652;9.250;2022-12-18T11:19:32;-3.70;99.90
10010;DHT22;5044;48.652;9.250;2022-12-18T11:22:01;-3.60;99.90
10010;DHT22;5044;48.652;9.250;2022-12-18T11:24:30;-3.40;99.90
10010;DHT22;5044;48.652;9.250;2022-12-18T11:26:59;-3.40;99.90
10010;DHT22;5044;48.652;9.250;2022-12-18T11:29:35;-3.30;99.90
10010;DHT22;5044;48.652;9.250;2022-12-18T11:32:31;-3.20;99.90
10010;DHT22;5044;48.652;9.250;2022-12-18T11:35:10;-3.10;99.90
10010;DHT22;5044;48.652;9.250;2022-12-18T11:37:39;-3.00;99.90
10010;DHT22;5044;48.652;9.250;2022-12-18T11:40:14;-3.10;99.90
10010;DHT22;5044;48.652;9.250;2022-12-18T11:42:46;-3.00;99.90
10010;DHT22;5044;48.652;9.250;2022-12-18T11:45:27;-2.90;99.90
10010;DHT22;5044;48.652;9.250;2022-12-18T11:48:01;-2.80;99.90
10010;DHT22;5044;48.652;9.250;2022-12-18T11:50:33;-2.70;99.90
10010;DHT22;5044;48.652;9.250;2022-12-18T11:53:10;-2.70;99.90
10010;DHT22;5044;48.652;9.250;2022-12-18T11:55:41;-2.70;99.90
10010;DHT22;5044;48.652;9.250;2022-12-18T11:58:20;-2.50;99.90
10010;DHT22;5044;48.652;9.250;2022-12-18T12:00:56;-2.30;99.90
10010;DHT22;5044;48.652;9.250;2022-12-18T12:03:58;-2.30;99.90
10010;DHT22;5044;48.652;9.250;2022-12-18T12:06:33;-2.20;99.90
10010;DHT22;5044;48.652;9.250;2022-12-18T12:09:10;-2.20;99.90
10010;DHT22;5044;48.652;9.250;2022-12-18T12:11:48;-2.10;99.90
10010;DHT22;5044;48.652;9.250;2022-12-18T12:14:34;-2.20;99.90
10010;DHT22;5044;48.652;9.250;2022-12-18T12:17:08;-2.20;99.90
10010;DHT22;5044;48.652;9.250;2022-12-18T12:19:48;-2.20;99.90
10010;DHT22;5044;48.652;9.250;2022-12-18T12:22:24;-2.30;99.90
10010;DHT22;5044;48.652;9.250;2022-12-18T12:25:13;-2.20;99.90
10010;DHT22;5044;48.652;9.250;2022-12-18T12:27:50;-2.10;99.90
10010;DHT22;5044;48.652;9.250;2022-12-18T12:30:22;-2.10;99.90
10010;DHT22;5044;48.652;9.250;2022-12-18T12:33:05;-2.10;99.90
10010;DHT22;5044;48.652;9.250;2022-12-18T12:35:46;-2.20;99.90
10010;DHT22;5044;48.652;9.250;2022-12-18T12:38:21;-2.20;99.90
10010;DHT22;5044;48.652;9.250;2022-12-18T12:40:52;-2.10;99.90
10010;DHT22;5044;48.652;9.250;2022-12-18T12:43:31;-2.10;99.90
10010;DHT22;5044;48.652;9.250;2022-12-18T12:46:00;-2.20;99.90
10010;DHT22;5044;48.652;9.250;2022-12-18T12:48:40;-2.40;99.90
10010;DHT22;5044;48.652;9.250;2022-12-18T12:51:15;-2.40;99.90
10010;DHT22;5044;48.652;9.250;2022-12-18T12:53:44;-2.40;99.90
10010;DHT22;5044;48.652;9.250;2022-12-18T12:56:15;-2.50;99.90
10010;DHT22;5044;48.652;9.250;2022-12-18T12:58:50;-2.50;99.90
10010;DHT22;5044;48.652;9.250;2022-12-18T13:01:27;-2.50;99.90
10010;DHT22;5044;48.652;9.250;2022-12-18T13:04:02;-2.50;99.90
10010;DHT22;5044;48.652;9.250;2022-12-18T13:06:39;-2.40;99.90
10010;DHT22;5044;48.652;9.250;2022-12-18T13:09:10;-2.50;99.90
10010;DHT22;5044;48.652;9.250;2022-12-18T13:11:39;-2.50;99.90
10010;DHT22;5044;48.652;9.250;2022-12-18T13:14:27;-2.50;99.90
10010;DHT22;5044;48.652;9.250;2022-12-18T13:17:27;-2.50;99.90
10010;DHT22;5044;48.652;9.250;2022-12-18T13:20:08;-2.50;99.90
10010;DHT22;5044;48.652;9.250;2022-12-18T13:22:48;-2.50;99.90
10010;DHT22;5044;48.652;9.250;2022-12-18T13:25:30;-2.60;99.90
10010;DHT22;5044;48.652;9.250;2022-12-18T13:28:10;-2.60;99.90
10010;DHT22;5044;48.652;9.250;2022-12-18T13:30:49;-2.70;99.90
10010;DHT22;5044;48.652;9.250;2022-12-18T13:33:47;-2.50;99.90
10010;DHT22;5044;48.652;9.250;2022-12-18T13:36:30;-2.50;99.90
10010;DHT22;5044;48.652;9.250;2022-12-18T13:39:24;-2.50;99.90
10010;DHT22;5044;48.652;9.250;2022-12-18T13:41:53;-2.50;99.90
10010;DHT22;5044;48.652;9.250;2022-12-18T13:44:31;-2.40;99.90
10010;DHT22;5044;48.652;9.250;2022-12-18T13:46:59;-2.40;99.90
10010;DHT22;5044;48.652;9.250;2022-12-18T13:49:32;-2.30;99.90
10010;DHT22;5044;48.652;9.250;2022-12-18T13:52:00;-2.30;99.90
10010;DHT22;5044;48.652;9.250;2022-12-18T13:54:34;-2.20;99.90
10010;DHT22;5044;48.652;9.250;2022-12-18T13:57:02;-2.20;99.90
10010;DHT22;5044;48.652;9.250;2022-12-18T13:59:34;-2.20;99.90
10010;DHT22;5044;48.652;9.250;2022-12-18T14:02:11;-2.20;99.90
10010;DHT22;5044;48.652;9.250;2022-12-18T14:04:39;-2.10;99.90
10010;DHT22;5044;48.652;9.250;2022-12-18T14:07:10;-2.20;99.90
10010;DHT22;5044;48.652;9.250;2022-12-18T14:09:40;-2.20;99.90
10010;DHT22;5044;48.652;9.250;2022-12-18T14:12:15;-2.20;99.90
10010;DHT22;5044;48.652;9.250;2022-12-18T14:15:00;-2.20;99.90
10010;DHT22;5044;48.652;9.250;2022-12-18T14:17:27;-2.20;99.90
10010;DHT22;5044;48.652;9.250;2022-12-18T14:19:57;-2.20;99.90
10010;DHT22;5044;48.652;9.250;2022-12-18T14:22:25;-2.30;99.90
10010;DHT22;5044;48.652;9.250;2022-12-18T14:25:18;-2.30;99.90
10010;DHT22;5044;48.652;9.250;2022-12-18T14:27:46;-2.30;99.90
10010;DHT22;5044;48.652;9.250;2022-12-18T14:30:27;-2.40;99.90
10010;DHT22;5044;48.652;9.250;2022-12-18T14:33:03;-2.10;99.90
10010;DHT22;5044;48.652;9.250;2022-12-18T14:35:30;-2.50;99.90
10010;DHT22;5044;48.652;9.250;2022-12-18T14:38:20;-2.50;99.90
10010;DHT22;5044;48.652;9.250;2022-12-18T14:40:52;-2.50;99.90
10010;DHT22;5044;48.652;9.250;2022-12-18T14:43:19;-2.50;99.90
10010;DHT22;5044;48.652;9.250;2022-12-18T14:45:46;-2.60;99.90
10010;DHT22;5044;48.652;9.250;2022-12-18T14:48:17;-2.70;99.90
10010;DHT22;5044;48.652;9.250;2022-12-18T14:50:54;-2.80;99.90
10010;DHT22;5044;48.652;9.250;2022-12-18T14:53:32;-2.80;99.90
10010;DHT22;5044;48.652;9.250;2022-12-18T14:56:01;-2.80;99.90
10010;DHT22;5044;48.652;9.250;2022-12-18T14:58:28;-2.80;99.90
10010;DHT22;5044;48.652;9.250;2022-12-18T15:00:55;-2.90;99.90
10010;DHT22;5044;48.652;9.250;2022-12-18T15:03:22;-2.90;99.90
10010;DHT22;5044;48.652;9.250;2022-12-18T15:05:49;-2.90;99.90
10010;DHT22;5044;48.652;9.250;2022-12-18T15:08:40;-2.90;99.90
10010;DHT22;5044;48.652;9.250;2022-12-18T15:11:28;-3.00;99.90
10010;DHT22;5044;48.652;9.250;2022-12-18T15:13:57;-3.10;99.90
10010;DHT22;5044;48.652;9.250;2022-12-18T15:16:25;-3.10;99.90
10010;DHT22;5044;48.652;9.250;2022-12-18T15:18:52;-3.10;99.90
10010;DHT22;5044;48.652;9.250;2022-12-18T15:21:20;-3.20;99.90
10010;DHT22;5044;48.652;9.250;2022-12-18T15:23:49;-3.20;99.90
10010;DHT22;5044;48.652;9.250;2022-12-18T15:26:18;-3.30;99.90
10010;DHT22;5044;48.652;9.250;2022-12-18T15:28:49;-3.40;99.90
10010;DHT22;5044;48.652;9.250;2022-12-18T15:31:26;-3.40;99.90
10010;DHT22;5044;48.652;9.250;2022-12-18T15:34:12;-3.20;99.90
10010;DHT22;5044;48.652;9.250;2022-12-18T15:36:40;-3.50;99.90
10010;DHT22;5044;48.652;9.250;2022-12-18T15:39:11;-3.60;99.90
10010;DHT22;5044;48.652;9.250;2022-12-18T15:41:39;-3.60;99.90
10010;DHT22;5044;48.652;9.250;2022-12-18T15:44:28;-3.60;99.90
10010;DHT22;5044;48.652;9.250;2022-12-18T15:46:54;-3.70;99.90
10010;DHT22;5044;48.652;9.250;2022-12-18T15:49:21;-3.70;99.90
10010;DHT22;5044;48.652;9.250;2022-12-18T15:51:51;-3.80;99.90
10010;DHT22;5044;48.652;9.250;2022-12-18T15:54:19;-3.80;99.90
10010;DHT22;5044;48.652;9.250;2022-12-18T15:57:09;-3.90;99.90
10010;DHT22;5044;48.652;9.250;2022-12-18T15:59:53;-4.00;99.90
10010;DHT22;5044;48.652;9.250;2022-12-18T16:02:22;-4.00;99.90
10010;DHT22;5044;48.652;9.250;2022-12-18T16:04:50;-4.00;99.90